Time;durP1;ratioP1;P1;durP2;ratioP2;P2;SDS_P1;SDS_P2;PMS_P1;PMS_P2;Temp;Humidity;BMP_temperature;BMP_pressure;BME280_temperature;BME280_humidity;BME280_pressure;Samples;Min_cycle;Max_cycle;Signal;HPM_P1;HPM_P2
2022/05/28 00:01:05;;;;;;;4.53;2.10;;;;;;;23.93;40.84;100769.72;5085537;28;20489;-58
2022/05/28 00:03:33;;;;;;;2.77;1.83;;;;;;;23.93;41.54;100779.72;5086255;28;20426;-57
2022/05/28 00:06:00;;;;;;;4.20;1.80;;;;;;;23.91;41.88;100801.63;5086372;28;20425;-57
2022/05/28 00:08:27;;;;;;;3.45;2.00;;;;;;;23.83;41.96;100794.78;5086077;28;20422;-57
2022/05/28 00:10:57;;;;;;;4.28;1.92;;;;;;;23.93;42.20;100793.25;5070615;28;20408;-56
2022/05/28 00:13:24;;;;;;;4.25;2.00;;;;;;;23.91;42.88;100779.16;5066124;28;20412;-57
2022/05/28 00:15:53;;;;;;;4.57;2.50;;;;;;;23.96;43.57;100769.19;5073903;28;20416;-58
2022/05/28 00:18:20;;;;;;;3.10;1.90;;;;;;;24.04;43.72;100760.59;5069722;28;20412;-57
2022/05/28 00:20:47;;;;;;;4.88;2.20;;;;;;;24.13;43.87;100769.06;5066012;28;20487;-57
2022/05/28 00:23:14;;;;;;;5.23;2.40;;;;;;;24.10;44.04;100758.75;5067636;28;20431;-57
2022/05/28 00:25:41;;;;;;;7.75;2.55;;;;;;;24.13;44.31;100752.81;5086130;28;20420;-57
2022/05/28 00:28:08;;;;;;;5.45;2.25;;;;;;;24.21;44.26;100746.91;5085383;28;20418;-58
2022/05/28 00:30:35;;;;;;;3.97;2.20;;;;;;;24.20;44.74;100756.13;5085661;28;20440;-57
2022/05/28 00:33:04;;;;;;;6.80;2.22;;;;;;;24.39;44.96;100750.28;5085719;28;20417;-58
2022/05/28 00:35:31;;;;;;;4.78;2.20;;;;;;;24.39;45.16;100759.22;5063657;28;20412;-57
2022/05/28 00:37:58;;;;;;;6.00;2.45;;;;;;;24.46;45.92;100759.00;5060072;28;20502;-57
2022/05/28 00:40:27;;;;;;;4.50;2.42;;;;;;;24.39;46.22;100761.91;5072416;28;20417;-57
2022/05/28 00:42:58;;;;;;;7.80;2.80;;;;;;;24.37;47.25;100749.72;5071920;28;20962;-57
2022/05/28 00:45:25;;;;;;;5.80;2.58;;;;;;;24.33;47.09;100752.13;5072377;28;20418;-56
2022/05/28 00:47:56;;;;;;;5.15;2.80;;;;;;;24.31;47.42;100748.88;5071591;28;20800;-57
2022/05/28 00:50:26;;;;;;;7.03;2.60;;;;;;;24.42;47.83;100736.22;5072277;28;20411;-57
2022/05/28 00:52:54;;;;;;;5.10;2.97;;;;;;;24.38;48.44;100735.91;5071436;28;20425;-57
2022/05/28 00:55:22;;;;;;;6.97;3.28;;;;;;;24.33;48.68;100730.47;5071361;28;20939;-57
2022/05/28 00:57:50;;;;;;;7.72;3.47;;;;;;;24.34;49.13;100723.94;5071705;28;20897;-57
2022/05/28 01:00:19;;;;;;;7.35;3.60;;;;;;;24.23;49.50;100728.50;5070900;28;20912;-57
2022/05/28 01:02:57;;;;;;;6.43;3.23;;;;;;;24.26;50.51;100719.03;5071187;28;20431;-57
2022/05/28 01:05:33;;;;;;;6.85;3.28;;;;;;;24.24;50.66;100705.75;5071522;28;20418;-57
2022/05/28 01:08:14;;;;;;;6.63;3.30;;;;;;;24.16;51.34;100697.31;5071353;28;20469;-57
2022/05/28 01:11:01;;;;;;;6.87;3.30;;;;;;;24.22;52.22;100686.25;5071805;28;20502;-58
2022/05/28 01:13:35;;;;;;;7.70;3.55;;;;;;;24.08;53.27;100681.56;5071096;28;20421;-55
2022/05/28 01:16:10;;;;;;;8.57;3.28;;;;;;;23.97;51.80;100677.97;5071400;28;20422;-57
2022/05/28 01:18:44;;;;;;;7.60;3.45;;;;;;;23.91;52.89;100674.38;5053707;28;20424;-57
2022/05/28 01:21:22;;;;;;;6.20;3.70;;;;;;;24.01;53.06;100671.75;5051661;28;20417;-57
2022/05/28 01:23:53;;;;;;;8.68;4.10;;;;;;;23.99;53.99;100686.63;5062177;28;20426;-57
2022/05/28 01:26:29;;;;;;;9.57;4.50;;;;;;;23.99;54.59;100694.75;5070493;28;20912;-57
2022/05/28 01:29:01;;;;;;;6.75;3.65;;;;;;;24.03;54.03;100693.97;5071226;28;20490;-57
2022/05/28 01:31:30;;;;;;;6.40;3.33;;;;;;;23.96;53.71;100703.41;5070798;28;20419;-57
2022/05/28 01:34:00;;;;;;;5.85;3.72;;;;;;;23.90;52.92;100707.16;5071489;28;20713;-58
2022/05/28 01:36:27;;;;;;;7.83;3.60;;;;;;;23.76;52.18;100707.53;5071342;28;20418;-57
2022/05/28 01:38:56;;;;;;;4.93;3.20;;;;;;;23.65;52.44;100700.41;5070590;28;20419;-55
2022/05/28 01:41:25;;;;;;;5.97;3.40;;;;;;;23.44;52.85;100711.06;5070935;28;20948;-58
2022/05/28 01:43:54;;;;;;;7.68;3.15;;;;;;;23.51;53.08;100720.84;5070822;28;20999;-57
2022/05/28 01:46:27;;;;;;;8.50;3.80;;;;;;;23.39;53.39;100716.41;5056977;28;20547;-56
2022/05/28 01:48:55;;;;;;;7.72;4.32;;;;;;;23.29;53.75;100727.13;5050637;28;20404;-57
2022/05/28 01:51:26;;;;;;;7.90;3.77;;;;;;;23.25;53.97;100724.13;5054919;28;20499;-58
2022/05/28 01:54:11;;;;;;;7.57;4.22;;;;;;;23.16;54.79;100730.25;5069082;28;20423;-57
2022/05/28 01:56:43;;;;;;;11.02;3.80;;;;;;;23.12;54.67;100723.69;5059664;28;20464;-57
2022/05/28 01:59:11;;;;;;;11.85;4.30;;;;;;;23.38;54.81;100720.19;5056338;28;20522;-57
2022/05/28 02:01:39;;;;;;;10.00;4.28;;;;;;;23.58;53.83;100713.34;5069988;28;21011;-57
2022/05/28 02:04:07;;;;;;;8.80;4.32;;;;;;;23.52;53.98;100708.97;5055717;28;20430;-56
2022/05/28 02:06:36;;;;;;;8.02;3.95;;;;;;;23.66;53.43;100707.47;5063507;28;20520;-56
2022/05/28 02:09:06;;;;;;;8.67;3.80;;;;;;;23.66;53.64;100718.31;5063256;28;20421;-56
2022/05/28 02:11:43;;;;;;;8.30;3.60;;;;;;;23.66;53.78;100721.00;5050048;28;20415;-55
2022/05/28 02:14:21;;;;;;;7.70;3.95;;;;;;;23.65;53.81;100719.34;5064127;28;20425;-55
2022/05/28 02:16:57;;;;;;;10.32;3.65;;;;;;;23.67;53.47;100725.31;5069706;28;20419;-55
2022/05/28 02:19:33;;;;;;;9.20;3.90;;;;;;;23.62;53.78;100722.56;5055211;28;20842;-56
2022/05/28 02:24:32;;;;;;;10.02;4.25;;;;;;;23.64;53.74;100748.31;5112950;27;20458;-57
2022/05/28 02:27:05;;;;;;;10.13;3.72;;;;;;;23.48;54.53;100768.19;5066374;28;20917;-57
2022/05/28 02:29:33;;;;;;;9.63;4.22;;;;;;;23.61;54.17;100791.31;5080319;28;20447;-57
2022/05/28 02:32:00;;;;;;;9.75;4.15;;;;;;;23.42;55.03;100818.69;5080508;28;20430;-57
2022/05/28 02:34:27;;;;;;;9.80;4.22;;;;;;;23.38;54.58;100812.16;5080164;28;20412;-57
2022/05/28 02:36:54;;;;;;;10.37;4.27;;;;;;;23.25;54.51;100807.97;5073932;28;20412;-57
2022/05/28 02:39:21;;;;;;;12.75;3.63;;;;;;;23.26;54.24;100808.75;5092486;28;20412;-57
2022/05/28 02:41:49;;;;;;;12.45;3.97;;;;;;;23.29;54.35;100808.28;5073049;28;20418;-57
2022/05/28 02:44:16;;;;;;;13.00;4.13;;;;;;;23.31;54.33;100816.94;5081625;28;20432;-57
2022/05/28 02:46:43;;;;;;;9.27;3.72;;;;;;;23.27;54.39;100805.00;5090177;28;20414;-57
2022/05/28 02:49:10;;;;;;;8.13;3.50;;;;;;;23.31;54.05;100802.63;5073301;28;20573;-57
2022/05/28 02:51:37;;;;;;;12.77;3.78;;;;;;;23.26;54.02;100819.59;5086482;28;20410;-57
2022/05/28 02:54:04;;;;;;;10.30;3.75;;;;;;;23.23;54.17;100804.69;5067540;28;20424;-58
2022/05/28 02:56:31;;;;;;;9.35;4.18;;;;;;;23.24;53.72;100797.38;5066585;28;20502;-57
2022/05/28 02:58:59;;;;;;;11.67;3.17;;;;;;;23.34;53.88;100796.72;5065669;28;20423;-58
2022/05/28 03:01:28;;;;;;;9.02;3.50;;;;;;;23.35;54.04;100782.91;5079468;28;20498;-57
2022/05/28 03:03:56;;;;;;;11.27;3.60;;;;;;;23.38;53.62;100781.59;5085957;28;20426;-57
2022/05/28 03:06:23;;;;;;;9.75;3.70;;;;;;;23.42;53.61;100761.88;5073965;28;20417;-57
2022/05/28 03:08:50;;;;;;;8.90;3.72;;;;;;;23.47;52.78;100742.19;5085910;28;20410;-57
2022/05/28 03:11:17;;;;;;;12.18;3.95;;;;;;;23.46;53.25;100727.00;5089861;28;20499;-57
2022/05/28 03:13:44;;;;;;;9.98;3.70;;;;;;;23.55;53.52;100713.84;5094915;28;20791;-56
2022/05/28 03:16:12;;;;;;;9.40;3.78;;;;;;;23.59;52.91;100696.03;5080988;28;20491;-57
2022/05/28 03:18:39;;;;;;;8.70;3.58;;;;;;;23.59;52.81;100671.69;5076460;28;20936;-56
2022/05/28 03:21:07;;;;;;;10.43;3.72;;;;;;;23.50;52.80;100629.91;5085525;28;20521;-57
2022/05/28 03:23:34;;;;;;;9.07;3.80;;;;;;;22.92;54.36;100600.72;5076583;28;20432;-56
2022/05/28 03:26:11;;;;;;;7.82;3.70;;;;;;;23.01;54.81;100603.78;5086254;28;20418;-57
2022/05/28 03:28:38;;;;;;;11.05;3.95;;;;;;;23.20;55.32;100624.00;5085555;28;20414;-57
2022/05/28 03:31:05;;;;;;;12.43;4.20;;;;;;;23.31;55.23;100624.91;5069952;28;20412;-57
2022/05/28 03:33:34;;;;;;;8.93;4.00;;;;;;;23.24;55.10;100635.13;5072016;28;20501;-57
2022/05/28 03:36:01;;;;;;;13.07;4.72;;;;;;;23.37;55.09;100640.13;5051585;28;20772;-57
2022/05/28 03:38:28;;;;;;;8.83;3.87;;;;;;;23.37;55.32;100656.34;5051669;28;20938;-57
2022/05/28 03:40:55;;;;;;;8.70;3.88;;;;;;;23.38;54.90;100646.34;5078843;28;20421;-57
2022/05/28 03:43:22;;;;;;;12.07;4.30;;;;;;;23.17;55.20;100637.22;5059165;28;20490;-57
2022/05/28 03:45:48;;;;;;;15.45;3.83;;;;;;;22.93;56.64;100633.97;5051796;28;20417;-57
2022/05/28 03:48:15;;;;;;;9.48;4.00;;;;;;;23.13;56.26;100622.59;5054008;28;20798;-56
2022/05/28 03:50:44;;;;;;;9.55;3.70;;;;;;;23.16;56.00;100608.56;5067161;28;20427;-57
2022/05/28 03:53:11;;;;;;;10.35;3.72;;;;;;;23.19;55.63;100600.75;5051734;28;20491;-57
2022/05/28 03:55:38;;;;;;;10.27;4.00;;;;;;;23.18;55.08;100598.28;5063775;28;20950;-57
2022/05/28 03:58:06;;;;;;;9.77;4.00;;;;;;;23.17;55.64;100599.34;5071563;28;20421;-57
2022/05/28 04:00:33;;;;;;;11.95;4.22;;;;;;;23.16;56.13;100620.19;5078275;28;20505;-57
2022/05/28 04:03:00;;;;;;;12.93;4.57;;;;;;;23.16;56.38;100620.19;5071670;28;20433;-57
2022/05/28 04:05:28;;;;;;;10.82;4.78;;;;;;;23.15;56.84;100623.13;5057377;28;20415;-57
2022/05/28 04:07:56;;;;;;;10.35;4.60;;;;;;;23.10;56.39;100623.91;5071201;28;20994;-57
2022/05/28 04:10:24;;;;;;;13.52;4.45;;;;;;;23.17;55.79;100624.50;5083365;28;20405;-57
2022/05/28 04:12:51;;;;;;;10.60;5.07;;;;;;;23.14;55.90;100627.75;5066679;28;20417;-57
2022/05/28 04:15:19;;;;;;;12.35;4.60;;;;;;;23.09;56.08;100635.78;5051430;28;20443;-59
2022/05/28 04:17:46;;;;;;;11.27;4.60;;;;;;;23.11;56.11;100638.25;5068421;28;20408;-57
2022/05/28 04:20:13;;;;;;;11.00;4.50;;;;;;;23.05;55.98;100648.19;5071759;28;20432;-57
2022/05/28 04:22:40;;;;;;;9.05;3.92;;;;;;;23.09;56.06;100657.44;5050892;28;20421;-57
2022/05/28 04:25:10;;;;;;;9.73;4.55;;;;;;;23.01;55.70;100652.44;5070026;28;20427;-56
2022/05/28 04:27:40;;;;;;;10.18;3.70;;;;;;;23.06;55.72;100656.03;5056472;28;20902;-56
2022/05/28 04:30:08;;;;;;;8.25;3.53;;;;;;;23.03;55.48;100663.81;5050907;28;21014;-57
2022/05/28 04:32:35;;;;;;;8.38;3.80;;;;;;;23.04;55.50;100668.16;5051282;28;20419;-57
2022/05/28 04:35:02;;;;;;;9.82;4.05;;;;;;;23.13;55.18;100673.97;5070412;28;20498;-56
2022/05/28 04:37:29;;;;;;;9.93;4.65;;;;;;;23.05;55.04;100675.25;5059682;28;20496;-57
2022/05/28 04:39:56;;;;;;;9.57;3.92;;;;;;;23.04;55.37;100671.69;5057752;28;20416;-56
2022/05/28 04:42:24;;;;;;;9.93;4.40;;;;;;;23.13;54.80;100666.66;5050929;28;20431;-58
2022/05/28 04:44:51;;;;;;;9.80;4.13;;;;;;;23.03;55.03;100675.47;5053624;28;20441;-57
2022/05/28 04:47:18;;;;;;;10.27;3.95;;;;;;;23.16;54.91;100676.97;5073014;28;20413;-57
2022/05/28 04:49:45;;;;;;;8.18;3.70;;;;;;;23.37;54.77;100683.41;5051024;28;20423;-57
2022/05/28 04:52:12;;;;;;;9.77;3.40;;;;;;;23.59;54.46;100693.34;5062879;28;20974;-56
2022/05/28 04:54:39;;;;;;;9.75;4.03;;;;;;;23.77;53.57;100692.09;5055748;28;20495;-57
2022/05/28 04:57:06;;;;;;;9.40;3.65;;;;;;;23.79;53.18;100693.50;5069742;28;20419;-57
2022/05/28 04:59:35;;;;;;;8.65;3.55;;;;;;;24.02;53.25;100696.94;5062648;28;20412;-57
2022/05/28 05:02:02;;;;;;;11.27;4.05;;;;;;;24.18;52.43;100693.28;5054365;28;20444;-57
2022/05/28 05:04:29;;;;;;;8.82;3.75;;;;;;;24.22;52.52;100713.34;5068647;28;20456;-56
2022/05/28 05:06:55;;;;;;;7.63;3.78;;;;;;;24.38;52.15;100716.13;5070089;28;20908;-57
2022/05/28 05:09:22;;;;;;;9.35;3.88;;;;;;;24.39;51.80;100715.84;5070854;28;20415;-57
2022/05/28 05:11:49;;;;;;;10.95;4.28;;;;;;;24.48;51.75;100710.75;5069914;28;20936;-56
2022/05/28 05:14:16;;;;;;;9.15;4.07;;;;;;;24.79;51.29;100713.66;5067937;28;20923;-57
2022/05/28 05:16:44;;;;;;;7.43;3.45;;;;;;;25.03;50.67;100718.59;5069830;28;20414;-57
2022/05/28 05:19:12;;;;;;;10.37;3.70;;;;;;;25.15;50.63;100721.91;5050706;28;20504;-58
2022/05/28 05:21:39;;;;;;;10.05;3.63;;;;;;;25.29;49.71;100731.19;5053332;28;20423;-57
2022/05/28 05:24:07;;;;;;;8.65;3.70;;;;;;;25.41;49.18;100728.25;5055575;28;20813;-57
2022/05/28 05:26:34;;;;;;;8.23;3.47;;;;;;;25.62;48.46;100729.06;5058860;28;20415;-57
2022/05/28 05:29:01;;;;;;;9.85;4.03;;;;;;;25.85;48.00;100725.00;5064196;28;20465;-57
2022/05/28 05:31:28;;;;;;;12.82;3.83;;;;;;;26.31;47.56;100724.16;5052927;28;21103;-57
2022/05/28 05:33:56;;;;;;;9.07;3.70;;;;;;;26.44;47.01;100722.78;5050223;28;20412;-57
2022/05/28 05:36:23;;;;;;;8.23;3.38;;;;;;;26.62;46.26;100719.47;5071468;28;20500;-58
2022/05/28 05:38:50;;;;;;;8.95;3.20;;;;;;;26.76;45.79;100718.88;5067982;28;20947;-58
2022/05/28 05:41:17;;;;;;;8.18;3.25;;;;;;;27.23;45.13;100720.28;5072524;28;20430;-57
2022/05/28 05:43:45;;;;;;;11.73;3.45;;;;;;;27.68;43.33;100721.09;5069238;28;20437;-57
2022/05/28 05:46:13;;;;;;;9.00;3.40;;;;;;;27.73;43.09;100722.94;5056505;28;20419;-57
2022/05/28 05:48:40;;;;;;;12.23;3.25;;;;;;;28.24;42.45;100725.25;5068311;28;20847;-58
2022/05/28 05:51:10;;;;;;;8.85;3.33;;;;;;;28.37;41.43;100726.47;5057758;28;20427;-58
2022/05/28 05:53:37;;;;;;;7.97;2.97;;;;;;;28.82;40.13;100727.03;5065686;28;20437;-58
2022/05/28 05:56:05;;;;;;;10.45;3.05;;;;;;;29.28;39.46;100723.72;5068526;28;20421;-58
2022/05/28 05:58:34;;;;;;;7.22;2.85;;;;;;;29.41;38.47;100722.16;5061596;28;20438;-57
2022/05/28 06:01:02;;;;;;;8.13;2.83;;;;;;;29.23;39.13;100725.72;5047990;28;20452;-56
2022/05/28 06:03:30;;;;;;;9.57;3.03;;;;;;;29.32;39.62;100729.41;5049812;28;20511;-58
2022/05/28 06:05:57;;;;;;;10.03;2.80;;;;;;;29.42;39.41;100731.97;5061678;28;20796;-58
2022/05/28 06:08:26;;;;;;;7.28;3.15;;;;;;;29.59;38.95;100727.91;5066834;28;20794;-58
2022/05/28 06:10:53;;;;;;;8.27;2.90;;;;;;;30.16;37.42;100719.56;5066530;28;20433;-58
2022/05/28 06:13:20;;;;;;;8.75;2.97;;;;;;;30.29;37.18;100721.53;5067996;28;20411;-58
2022/05/28 06:15:47;;;;;;;9.73;3.30;;;;;;;29.58;38.04;100718.88;5067095;28;20417;-57
2022/05/28 06:18:15;;;;;;;9.23;3.45;;;;;;;29.14;38.85;100714.63;5060573;28;20798;-58
2022/05/28 06:20:42;;;;;;;10.23;3.33;;;;;;;29.61;38.30;100714.75;5075256;28;20916;-58
2022/05/28 06:23:09;;;;;;;7.57;3.20;;;;;;;29.88;37.51;100717.59;5058190;28;20411;-58
2022/05/28 06:25:39;;;;;;;8.32;4.40;;;;;;;29.92;37.67;100710.41;5061804;28;20871;-57
2022/05/28 06:28:06;;;;;;;8.55;3.67;;;;;;;29.57;38.77;100717.28;5068336;28;20828;-58
2022/05/28 06:30:33;;;;;;;9.02;3.45;;;;;;;29.38;38.70;100716.47;5060708;28;20409;-57
2022/05/28 06:33:00;;;;;;;7.93;3.10;;;;;;;29.33;38.65;100706.44;5063836;28;20412;-58
2022/05/28 06:35:30;;;;;;;9.82;3.30;;;;;;;29.63;38.88;100709.81;5061841;28;20605;-58
2022/05/28 06:37:57;;;;;;;9.32;3.38;;;;;;;30.13;37.56;100703.78;5066541;28;20516;-58
2022/05/28 06:40:24;;;;;;;10.40;3.00;;;;;;;30.44;37.27;100704.03;5063143;28;20845;-57
2022/05/28 06:42:55;;;;;;;8.13;3.13;;;;;;;30.54;36.99;100697.53;5054201;28;20439;-58
2022/05/28 06:45:22;;;;;;;6.38;3.10;;;;;;;30.45;37.30;100703.72;5054639;28;20479;-58
2022/05/28 06:47:49;;;;;;;8.40;3.10;;;;;;;30.65;36.58;100691.53;5058902;28;20416;-58
2022/05/28 06:53:07;;;;;;;9.27;3.37;;;;;;;30.76;36.39;100683.13;5054028;28;20446;-58
2022/05/28 06:55:34;;;;;;;6.55;2.95;;;;;;;30.71;36.29;100680.50;5052924;28;20854;-58
2022/05/28 06:58:03;;;;;;;6.88;3.20;;;;;;;30.82;36.48;100685.44;5059979;28;20408;-58
2022/05/28 07:00:30;;;;;;;7.30;3.22;;;;;;;30.68;36.77;100677.25;5060964;28;20424;-58
2022/05/28 07:02:57;;;;;;;7.60;3.60;;;;;;;30.76;36.30;100669.44;5067475;28;21686;-57
2022/05/28 07:05:25;;;;;;;9.73;3.50;;;;;;;30.80;35.88;100662.22;5066577;28;20517;-58
2022/05/28 07:07:52;;;;;;;6.80;3.20;;;;;;;30.60;36.23;100660.75;5057838;28;20499;-58
2022/05/28 07:10:19;;;;;;;6.17;3.23;;;;;;;30.54;36.19;100656.50;5066422;28;20410;-57
2022/05/28 07:12:46;;;;;;;7.75;3.30;;;;;;;30.53;36.16;100650.22;5061664;28;20449;-58
2022/05/28 07:15:17;;;;;;;9.27;3.50;;;;;;;30.47;36.58;100648.72;5061547;28;20505;-57
2022/05/28 07:17:44;;;;;;;10.20;3.67;;;;;;;30.56;36.12;100641.41;5060223;28;20445;-58
2022/05/28 07:20:12;;;;;;;7.50;4.00;;;;;;;30.56;36.12;100644.16;5058427;28;20793;-58
2022/05/28 07:22:40;;;;;;;5.50;4.10;;;;;;;30.46;36.29;100641.63;5060882;28;20427;-58
2022/05/28 07:25:08;;;;;;;7.18;4.10;;;;;;;30.21;36.40;100642.91;5056938;28;20930;-57
2022/05/28 07:27:35;;;;;;;9.35;3.88;;;;;;;30.42;35.96;100637.88;5064565;28;20414;-57
2022/05/28 07:30:02;;;;;;;9.10;4.07;;;;;;;30.29;36.42;100642.22;5064245;28;20497;-58
2022/05/28 07:32:31;;;;;;;6.82;3.50;;;;;;;30.28;36.49;100646.84;5062457;28;20417;-59
2022/05/28 07:34:58;;;;;;;6.57;3.40;;;;;;;30.38;36.15;100650.53;5063071;28;20417;-58
2022/05/28 07:37:25;;;;;;;8.05;4.40;;;;;;;30.48;35.97;100644.84;5061792;28;20425;-58
2022/05/28 07:39:52;;;;;;;5.77;3.87;;;;;;;30.63;35.40;100650.00;5065098;28;20425;-58
2022/05/28 07:42:19;;;;;;;4.78;3.63;;;;;;;30.58;35.41;100643.84;5062548;28;20478;-57
2022/05/28 07:44:46;;;;;;;5.53;3.22;;;;;;;30.47;35.43;100643.25;5055989;28;20450;-58
2022/05/28 07:48:40;;;;;;;6.68;3.60;;;;;;;30.23;35.97;100638.78;5101309;27;20467;-58
2022/05/28 07:51:07;;;;;;;10.10;4.00;;;;;;;30.33;36.17;100640.50;5086253;28;20420;-58
2022/05/28 07:53:34;;;;;;;4.93;3.60;;;;;;;30.38;36.09;100639.59;5085747;28;20795;-56
2022/05/28 07:56:01;;;;;;;7.30;4.00;;;;;;;30.45;35.92;100648.19;5084778;28;20425;-58
2022/05/28 07:58:29;;;;;;;4.82;3.63;;;;;;;29.88;35.89;100646.53;5086123;28;20418;-57
2022/05/28 08:00:56;;;;;;;9.50;3.73;;;;;;;30.12;36.30;100642.81;5084454;28;20418;-57
2022/05/28 08:03:23;;;;;;;6.78;3.80;;;;;;;30.31;36.14;100645.47;5085649;28;20414;-58
2022/05/28 08:05:53;;;;;;;6.15;3.55;;;;;;;30.24;36.30;100645.06;5085606;28;20410;-58
2022/05/28 08:08:22;;;;;;;5.63;3.60;;;;;;;30.28;35.86;100637.84;5085902;28;20505;-58
2022/05/28 08:10:50;;;;;;;5.03;3.70;;;;;;;30.43;35.78;100642.22;5086111;28;20414;-58
2022/05/28 08:13:19;;;;;;;6.85;4.40;;;;;;;30.42;35.88;100643.34;5085827;28;20496;-58
2022/05/28 08:15:47;;;;;;;5.50;3.60;;;;;;;30.56;35.48;100646.03;5084669;28;20414;-58
2022/05/28 08:18:17;;;;;;;6.25;3.85;;;;;;;30.44;35.36;100641.91;5084235;28;21024;-58
2022/05/28 08:23:31;;;;;;;5.10;3.80;;;;;;;30.31;35.71;100626.31;5083302;28;20409;-58
2022/05/28 08:25:57;;;;;;;4.80;3.85;;;;;;;30.28;35.79;100633.19;5084784;28;20414;-57
2022/05/28 08:28:24;;;;;;;6.43;3.60;;;;;;;30.40;35.98;100638.19;5084892;28;20432;-58
2022/05/28 08:30:51;;;;;;;7.00;4.00;;;;;;;30.41;35.80;100628.84;5085696;28;20410;-57
2022/05/28 08:33:20;;;;;;;7.50;4.10;;;;;;;30.52;35.97;100634.09;5085540;28;20420;-58
2022/05/28 08:35:48;;;;;;;7.50;3.95;;;;;;;30.54;35.74;100629.97;5085439;28;20489;-57
2022/05/28 08:38:17;;;;;;;5.70;3.70;;;;;;;30.32;35.78;100630.66;5085474;28;20417;-57
2022/05/28 08:40:49;;;;;;;6.15;3.90;;;;;;;30.30;36.16;100633.69;5081482;28;20450;-57
2022/05/28 08:43:19;;;;;;;5.68;3.85;;;;;;;29.95;36.54;100631.69;5085460;28;20410;-57
2022/05/28 08:45:49;;;;;;;5.13;3.80;;;;;;;29.82;37.00;100625.06;5085638;28;20425;-57
2022/05/28 08:48:20;;;;;;;6.80;4.05;;;;;;;30.11;36.72;100614.66;5085090;28;20430;-57
2022/05/28 08:50:53;;;;;;;6.47;4.00;;;;;;;30.26;36.40;100613.53;5083063;28;20406;-57
2022/05/28 08:53:24;;;;;;;6.68;3.60;;;;;;;29.98;35.69;100607.28;5088090;28;20420;-57
2022/05/28 08:55:54;;;;;;;4.28;3.60;;;;;;;29.62;36.73;100610.66;5085190;28;20410;-57
2022/05/28 08:58:25;;;;;;;7.63;4.20;;;;;;;29.97;36.79;100610.31;5081086;28;20417;-57
2022/05/28 09:00:57;;;;;;;5.45;3.70;;;;;;;30.17;36.39;100607.19;5071565;28;20421;-57
2022/05/28 09:03:27;;;;;;;7.90;3.83;;;;;;;30.30;36.06;100609.06;5071836;28;20418;-57
2022/05/28 09:06:02;;;;;;;5.47;3.90;;;;;;;30.37;35.86;100605.16;5076259;28;20916;-57
2022/05/28 09:08:31;;;;;;;6.25;4.05;;;;;;;30.48;36.56;100612.03;5071849;28;20521;-57
2022/05/28 09:11:16;;;;;;;5.72;3.72;;;;;;;30.49;36.57;100610.91;5071915;28;20411;-57
2022/05/28 09:13:45;;;;;;;5.70;4.10;;;;;;;30.55;36.00;100606.16;5072013;28;20403;-57
2022/05/28 09:16:22;;;;;;;4.97;3.90;;;;;;;30.70;35.94;100594.84;5071247;28;20422;-57
2022/05/28 09:18:52;;;;;;;8.32;3.97;;;;;;;30.61;35.62;100599.44;5071524;28;20420;-57
2022/05/28 09:21:21;;;;;;;6.13;3.90;;;;;;;30.78;35.38;100599.59;5070837;28;20415;-57
2022/05/28 09:23:53;;;;;;;6.83;4.17;;;;;;;30.79;35.21;100594.91;5070147;28;20422;-57
2022/05/28 09:26:30;;;;;;;6.60;3.80;;;;;;;30.92;34.51;100588.63;5069607;28;20498;-57
2022/05/28 09:29:08;;;;;;;6.18;3.83;;;;;;;31.12;34.59;100589.25;5071608;28;20433;-56
2022/05/28 09:31:50;;;;;;;9.27;4.35;;;;;;;31.20;34.68;100583.81;5071090;28;20407;-57
2022/05/28 09:34:31;;;;;;;6.63;3.67;;;;;;;31.58;34.37;100596.31;5071285;28;20415;-56
2022/05/28 09:37:06;;;;;;;5.77;4.13;;;;;;;31.74;33.87;100596.72;5058468;28;20407;-57
2022/05/28 09:39:47;;;;;;;5.22;3.50;;;;;;;31.76;33.32;100599.94;5070032;28;20419;-57
2022/05/28 09:42:27;;;;;;;5.75;3.50;;;;;;;31.78;33.39;100587.56;5070794;28;20411;-57
2022/05/28 09:45:14;;;;;;;8.18;4.07;;;;;;;31.51;32.91;100585.81;5069816;28;20916;-58
2022/05/28 09:47:46;;;;;;;6.63;4.10;;;;;;;31.56;33.41;100593.09;5069927;28;20434;-57
2022/05/28 09:50:22;;;;;;;7.07;4.20;;;;;;;31.65;33.77;100588.44;5070390;28;20422;-57
2022/05/28 09:56:14;;;;;;;6.22;3.60;;;;;;;31.85;33.29;100584.34;5070883;28;20398;-57
2022/05/28 09:58:43;;;;;;;4.97;4.20;;;;;;;31.63;33.43;100575.06;5070492;28;20402;-57
2022/05/28 10:01:14;;;;;;;6.97;4.18;;;;;;;31.64;33.86;100570.41;5070722;28;20927;-57
2022/05/28 10:06:27;;;;;;;5.03;3.67;;;;;;;31.77;33.50;100553.03;5068397;28;20843;-57
2022/05/28 10:08:54;;;;;;;5.80;3.40;;;;;;;31.79;32.77;100550.00;5068100;28;20852;-57
2022/05/28 10:11:22;;;;;;;8.57;3.80;;;;;;;31.89;32.44;100548.88;5069223;28;20793;-57
2022/05/28 10:13:53;;;;;;;4.07;3.30;;;;;;;31.78;31.96;100540.97;5070154;28;20417;-57
2022/05/28 10:16:23;;;;;;;7.68;4.35;;;;;;;31.80;32.27;100537.88;5069562;28;20447;-56
2022/05/28 10:18:56;;;;;;;5.93;3.78;;;;;;;31.63;32.60;100538.63;5068195;28;20429;-57
2022/05/28 10:21:31;;;;;;;6.33;3.80;;;;;;;31.78;32.71;100535.47;5066451;28;20410;-57
2022/05/28 10:24:01;;;;;;;4.70;3.47;;;;;;;31.82;32.88;100530.19;5068089;28;20800;-57
2022/05/28 10:26:31;;;;;;;6.65;3.60;;;;;;;31.90;32.49;100525.84;5069041;28;20414;-55
2022/05/28 10:29:03;;;;;;;7.87;3.47;;;;;;;31.77;32.31;100522.91;5069054;28;20423;-57
2022/05/28 10:31:32;;;;;;;7.03;3.30;;;;;;;31.76;32.13;100520.47;5068195;28;20414;-57
2022/05/28 10:34:00;;;;;;;4.83;3.57;;;;;;;31.83;33.07;100523.56;5065605;28;20428;-56
2022/05/28 10:36:29;;;;;;;6.78;3.30;;;;;;;31.81;32.32;100515.63;5069744;28;20418;-56
2022/05/28 10:39:06;;;;;;;6.55;3.70;;;;;;;31.90;32.36;100512.13;5070026;28;20440;-57
2022/05/28 10:41:36;;;;;;;5.75;3.40;;;;;;;32.09;32.18;100506.38;5068703;28;20415;-57
2022/05/28 10:44:05;;;;;;;6.80;3.50;;;;;;;32.14;32.22;100507.06;5066014;28;20429;-57
2022/05/28 10:46:43;;;;;;;6.15;3.80;;;;;;;32.22;31.96;100499.94;5064338;28;20917;-57
2022/05/28 10:49:26;;;;;;;6.18;3.20;;;;;;;31.90;31.15;100501.97;5065759;28;20426;-57
2022/05/28 10:52:03;;;;;;;6.82;4.13;;;;;;;31.65;31.71;100489.00;5065588;28;20419;-57
2022/05/28 10:54:45;;;;;;;6.07;3.45;;;;;;;31.92;31.66;100491.47;5065393;28;20425;-58
2022/05/28 10:57:31;;;;;;;6.60;3.40;;;;;;;32.08;31.63;100480.09;5066095;28;20425;-57
2022/05/28 11:00:12;;;;;;;5.47;2.95;;;;;;;32.07;31.64;100470.25;5065166;28;20516;-57
2022/05/28 11:03:07;;;;;;;5.45;3.10;;;;;;;32.22;30.96;100472.53;5066408;28;20460;-56
2022/05/28 11:06:06;;;;;;;4.90;3.00;;;;;;;32.25;30.68;100465.56;5066312;28;20426;-57
2022/05/28 11:08:46;;;;;;;5.35;3.00;;;;;;;31.41;31.18;100457.31;5062423;28;20453;-57
2022/05/28 11:11:34;;;;;;;5.25;3.20;;;;;;;31.77;31.43;100462.59;5062677;28;20476;-57
2022/05/28 11:14:17;;;;;;;5.50;3.30;;;;;;;31.83;31.57;100460.50;5060864;28;20429;-56
2022/05/28 11:17:01;;;;;;;7.43;3.40;;;;;;;31.90;31.65;100446.34;5062184;28;20413;-57
2022/05/28 11:19:45;;;;;;;6.65;3.20;;;;;;;32.00;30.95;100444.09;5061690;28;20422;-57
2022/05/28 11:22:42;;;;;;;5.87;3.40;;;;;;;32.06;30.05;100441.22;5061742;28;20431;-57
2022/05/28 11:25:16;;;;;;;5.63;2.92;;;;;;;31.93;29.48;100438.28;5062175;28;20455;-57
2022/05/28 11:28:05;;;;;;;6.15;3.05;;;;;;;31.96;30.83;100437.66;5062517;28;20458;-57
2022/05/28 11:30:38;;;;;;;5.40;3.60;;;;;;;32.07;31.09;100434.59;5058980;28;20410;-56
2022/05/28 11:33:15;;;;;;;5.67;3.27;;;;;;;31.98;31.51;100429.91;5061289;28;20941;-57
2022/05/28 11:35:47;;;;;;;5.80;3.40;;;;;;;32.06;31.13;100422.84;5061669;28;20883;-56
2022/05/28 11:38:21;;;;;;;4.93;3.30;;;;;;;32.19;30.72;100421.84;5062474;28;20418;-57
2022/05/28 11:40:56;;;;;;;6.22;3.15;;;;;;;32.24;30.97;100417.34;5061638;28;20923;-56
2022/05/28 11:43:29;;;;;;;6.07;3.20;;;;;;;31.88;31.19;100421.97;5064670;28;20417;-57
2022/05/28 11:46:02;;;;;;;4.70;3.20;;;;;;;31.94;31.49;100409.72;5066828;28;20824;-56
2022/05/28 11:51:30;;;;;;;4.87;3.03;;;;;;;32.09;30.91;100404.91;5067266;28;20469;-57
2022/05/28 11:54:04;;;;;;;4.57;3.13;;;;;;;32.13;30.31;100406.69;5066676;28;20905;-57
2022/05/28 11:56:31;;;;;;;6.93;3.17;;;;;;;31.75;31.10;100401.03;5067006;28;20411;-57